sensor_id;sensor_type;location;lat;lon;timestamp;pressure;altitude;pressure_sealevel;temperature;humidity
43691;BME280;29293;52.190;21.226;2023-07-08T00:06:55;100959.63;;;11.41;100.00
43691;BME280;29293;52.190;21.226;2023-07-08T00:22:04;100958.77;;;11.22;100.00
43691;BME280;29293;52.190;21.226;2023-07-08T00:37:14;100962.16;;;11.06;100.00
43691;BME280;29293;52.190;21.226;2023-07-08T00:52:25;100962.60;;;10.85;100.00
43691;BME280;29293;52.190;21.226;2023-07-08T01:07:33;100961.61;;;10.75;100.00
43691;BME280;29293;52.190;21.226;2023-07-08T01:22:41;100961.30;;;10.61;100.00
43691;BME280;29293;52.190;21.226;2023-07-08T01:37:51;100961.09;;;10.45;100.00
43691;BME280;29293;52.190;21.226;2023-07-08T01:53:02;100967.58;;;10.13;100.00
43691;BME280;29293;52.190;21.226;2023-07-08T02:08:11;100962.99;;;9.95;100.00
43691;BME280;29293;52.190;21.226;2023-07-08T02:23:17;100960.98;;;9.83;100.00
43691;BME280;29293;52.190;21.226;2023-07-08T02:38:26;100955.77;;;9.75;100.00
43691;BME280;29293;52.190;21.226;2023-07-08T02:53:33;100950.55;;;9.70;100.00
43691;BME280;29293;52.190;21.226;2023-07-08T03:08:40;100952.40;;;9.69;100.00
43691;BME280;29293;52.190;21.226;2023-07-08T03:23:47;100959.52;;;9.78;100.00
43691;BME280;29293;52.190;21.226;2023-07-08T03:38:55;100960.86;;;9.98;100.00
43691;BME280;29293;52.190;21.226;2023-07-08T03:54:02;100959.75;;;10.33;100.00
43691;BME280;29293;52.190;21.226;2023-07-08T04:09:09;100957.34;;;10.77;100.00
43691;BME280;29293;52.190;21.226;2023-07-08T04:24:18;100953.63;;;11.30;100.00
43691;BME280;29293;52.190;21.226;2023-07-08T04:39:25;100961.02;;;11.89;100.00
43691;BME280;29293;52.190;21.226;2023-07-08T04:54:31;100954.75;;;12.78;100.00
43691;BME280;29293;52.190;21.226;2023-07-08T05:09:39;100947.60;;;13.54;100.00
43691;BME280;29293;52.190;21.226;2023-07-08T05:24:45;100948.78;;;14.21;100.00
43691;BME280;29293;52.190;21.226;2023-07-08T05:39:52;100945.16;;;14.98;100.00
43691;BME280;29293;52.190;21.226;2023-07-08T05:54:59;100941.08;;;15.74;100.00
43691;BME280;29293;52.190;21.226;2023-07-08T06:10:07;100935.07;;;16.55;100.00
43691;BME280;29293;52.190;21.226;2023-07-08T06:25:14;100924.98;;;17.45;100.00
43691;BME280;29293;52.190;21.226;2023-07-08T06:40:21;100923.35;;;18.12;100.00
43691;BME280;29293;52.190;21.226;2023-07-08T06:55:28;100921.58;;;19.28;100.00
43691;BME280;29293;52.190;21.226;2023-07-08T07:10:35;100911.34;;;21.50;100.00
43691;BME280;29293;52.190;21.226;2023-07-08T07:25:42;100892.14;;;22.92;100.00
43691;BME280;29293;52.190;21.226;2023-07-08T07:40:51;100888.96;;;23.74;100.00
43691;BME280;29293;52.190;21.226;2023-07-08T07:55:59;100889.80;;;24.39;100.00
43691;BME280;29293;52.190;21.226;2023-07-08T08:11:06;100880.17;;;24.56;100.00
43691;BME280;29293;52.190;21.226;2023-07-08T08:26:15;100871.25;;;24.89;84.84
43691;BME280;29293;52.190;21.226;2023-07-08T08:41:28;100880.59;;;25.28;61.37
43691;BME280;29293;52.190;21.226;2023-07-08T08:56:44;100876.12;;;25.79;55.95
43691;BME280;29293;52.190;21.226;2023-07-08T09:12:00;100874.43;;;26.36;49.08
43691;BME280;29293;52.190;21.226;2023-07-08T09:27:10;100878.81;;;26.72;47.64
43691;BME280;29293;52.190;21.226;2023-07-08T09:42:17;100870.27;;;26.47;42.56
43691;BME280;29293;52.190;21.226;2023-07-08T09:57:29;100867.83;;;26.42;43.87
43691;BME280;29293;52.190;21.226;2023-07-08T10:12:39;100858.48;;;26.90;42.68
43691;BME280;29293;52.190;21.226;2023-07-08T10:27:52;100856.32;;;26.94;42.30
43691;BME280;29293;52.190;21.226;2023-07-08T10:43:30;100840.53;;;26.61;42.75
43691;BME280;29293;52.190;21.226;2023-07-08T10:58:52;100827.72;;;27.86;38.57
43691;BME280;29293;52.190;21.226;2023-07-08T11:14:10;100818.77;;;28.71;36.65
43691;BME280;29293;52.190;21.226;2023-07-08T11:29:23;100808.23;;;29.07;34.89
43691;BME280;29293;52.190;21.226;2023-07-08T11:44:31;100795.69;;;29.06;34.78
43691;BME280;29293;52.190;21.226;2023-07-08T11:59:41;100787.02;;;29.66;33.94
43691;BME280;29293;52.190;21.226;2023-07-08T12:14:51;100777.16;;;29.50;33.86
43691;BME280;29293;52.190;21.226;2023-07-08T12:29:59;100780.11;;;28.93;34.65
43691;BME280;29293;52.190;21.226;2023-07-08T12:45:14;100774.71;;;28.03;36.32
43691;BME280;29293;52.190;21.226;2023-07-08T13:00:28;100769.69;;;27.73;37.34
43691;BME280;29293;52.190;21.226;2023-07-08T13:15:38;100756.35;;;27.43;39.42
43691;BME280;29293;52.190;21.226;2023-07-08T13:30:58;100740.16;;;28.34;36.19
43691;BME280;29293;52.190;21.226;2023-07-08T13:46:05;100734.70;;;28.80;35.68
43691;BME280;29293;52.190;21.226;2023-07-08T14:01:17;100726.84;;;28.93;34.38
43691;BME280;29293;52.190;21.226;2023-07-08T14:16:27;100715.58;;;28.91;34.27
43691;BME280;29293;52.190;21.226;2023-07-08T14:31:34;100703.80;;;28.91;34.89
43691;BME280;29293;52.190;21.226;2023-07-08T14:46:42;100692.26;;;28.86;35.40
43691;BME280;29293;52.190;21.226;2023-07-08T15:01:49;100676.21;;;28.72;35.51
43691;BME280;29293;52.190;21.226;2023-07-08T15:16:57;100674.74;;;28.39;34.47
43691;BME280;29293;52.190;21.226;2023-07-08T15:32:04;100662.99;;;27.78;35.09
43691;BME280;29293;52.190;21.226;2023-07-08T15:47:16;100657.05;;;27.11;38.27
43691;BME280;29293;52.190;21.226;2023-07-08T16:02:26;100649.85;;;26.64;38.07
43691;BME280;29293;52.190;21.226;2023-07-08T16:17:37;100643.59;;;26.30;39.47
43691;BME280;29293;52.190;21.226;2023-07-08T16:32:44;100632.81;;;25.97;40.25
43691;BME280;29293;52.190;21.226;2023-07-08T16:47:52;100629.41;;;25.76;39.13
43691;BME280;29293;52.190;21.226;2023-07-08T17:02:59;100622.91;;;25.42;39.98
43691;BME280;29293;52.190;21.226;2023-07-08T17:18:08;100617.88;;;25.28;39.21
43691;BME280;29293;52.190;21.226;2023-07-08T17:33:20;100621.17;;;25.02;40.40
43691;BME280;29293;52.190;21.226;2023-07-08T17:48:28;100619.39;;;24.49;42.62
43691;BME280;29293;52.190;21.226;2023-07-08T18:03:35;100619.88;;;23.88;44.04
43691;BME280;29293;52.190;21.226;2023-07-08T18:18:42;100629.42;;;23.28;47.93
43691;BME280;29293;52.190;21.226;2023-07-08T18:33:49;100632.29;;;22.54;50.83
43691;BME280;29293;52.190;21.226;2023-07-08T18:48:56;100633.86;;;21.91;53.45
43691;BME280;29293;52.190;21.226;2023-07-08T19:04:07;100639.16;;;21.16;57.84
43691;BME280;29293;52.190;21.226;2023-07-08T19:19:16;100646.27;;;20.38;61.75
43691;BME280;29293;52.190;21.226;2023-07-08T19:34:25;100660.23;;;19.67;67.14
43691;BME280;29293;52.190;21.226;2023-07-08T19:49:32;100663.97;;;19.06;73.10
43691;BME280;29293;52.190;21.226;2023-07-08T20:04:39;100664.76;;;18.50;82.88
43691;BME280;29293;52.190;21.226;2023-07-08T20:19:45;100669.01;;;18.04;87.25
43691;BME280;29293;52.190;21.226;2023-07-08T20:34:52;100676.92;;;17.71;92.86
43691;BME280;29293;52.190;21.226;2023-07-08T20:49:59;100680.91;;;17.44;98.70
43691;BME280;29293;52.190;21.226;2023-07-08T21:05:06;100690.60;;;17.25;100.00
43691;BME280;29293;52.190;21.226;2023-07-08T21:20:18;100693.31;;;17.11;100.00
43691;BME280;29293;52.190;21.226;2023-07-08T21:35:28;100707.40;;;16.92;100.00
43691;BME280;29293;52.190;21.226;2023-07-08T21:50:39;100712.55;;;16.96;100.00
43691;BME280;29293;52.190;21.226;2023-07-08T22:05:48;100711.38;;;17.03;100.00
43691;BME280;29293;52.190;21.226;2023-07-08T22:20:56;100713.95;;;17.09;100.00
43691;BME280;29293;52.190;21.226;2023-07-08T22:36:04;100719.55;;;17.10;100.00
43691;BME280;29293;52.190;21.226;2023-07-08T22:51:11;100721.49;;;16.97;100.00
43691;BME280;29293;52.190;21.226;2023-07-08T23:06:23;100718.48;;;16.70;100.00
43691;BME280;29293;52.190;21.226;2023-07-08T23:21:31;100716.33;;;16.52;100.00
43691;BME280;29293;52.190;21.226;2023-07-08T23:36:40;100717.23;;;16.36;100.00
43691;BME280;29293;52.190;21.226;2023-07-08T23:51:47;100713.40;;;16.29;100.00
